KBUF/BUF METAR and TAF weather

Enter ICAO airport designator
Station Type Date Time Source
KBUF METAR 2021/09/24 01:54 UTC NOAA

KBUF 240154Z 20015KT 10SM FEW028 FEW035 BKN055 14/08 A2987 RMK AO2 SLP115 T01390083


Station Type Date Time Source
KBUF Decoded METAR 2021/09/24 01:54 UTC NOAA

GREATER BUFFALO INTERNATIONAL AIRPORT , NY, United States (KBUF) 42-56N 078-44W 225M
Sep 23, 2021 - 09:54 PM EDT / 2021.09.24 0154 UTC
Wind: from the SSW (200 degrees) at 17 MPH (15 KT):0
Visibility: 10 mile(s):0
Sky conditions: mostly cloudy
Temperature: 57.0 F (13.9 C)
Dew Point: 46.9 F (8.3 C)
Relative Humidity: 68%
Pressure (altimeter): 29.87 in. Hg (1011 hPa)
ob: KBUF 240154Z 20015KT 10SM FEW028 FEW035 BKN055 14/08 A2987 RMK AO2 SLP115 T01390083
cycle: 2

Station Type Date Time Source
KBUF TAF 2021/09/23 21:12 UTC NOAA

TAF
AMD KBUF 232108Z 2321/2418 21013KT P6SM OVC050
FM241000 20015G24KT P6SM BKN025
FM241300 22013G23KT P6SM VCSH BKN020

Example: see airport list